Time;durP1;ratioP1;P1;durP2;ratioP2;P2;SDS_P1;SDS_P2;PMS_P1;PMS_P2;Temp;Humidity;BMP_temperature;BMP_pressure;BME280_temperature;BME280_humidity;BME280_pressure;Samples;Min_cycle;Max_cycle;Signal;HPM_P1;HPM_P2
2022/01/25 00:09:34;;;;;;;8.88;4.70;;;4.30;99.90;;;;;;5096647;28;20060;-87
2022/01/25 00:26:17;;;;;;;6.53;4.80;;;4.40;99.90;;;;;;5075887;28;20031;-87
2022/01/25 00:28:49;;;;;;;8.95;4.97;;;4.30;99.90;;;;;;5075596;28;20067;-87
2022/01/25 00:31:16;;;;;;;9.52;5.28;;;4.30;99.90;;;;;;5094637;28;20024;-87
2022/01/25 00:34:31;;;;;;;8.95;4.40;;;4.30;99.90;;;;;;5096007;28;20024;-87
2022/01/25 00:36:57;;;;;;;8.98;5.28;;;4.20;99.90;;;;;;5095712;28;20111;-87
2022/01/25 00:39:22;;;;;;;6.88;4.78;;;4.10;99.90;;;;;;5078019;28;20103;-87
2022/01/25 00:41:53;;;;;;;6.00;5.28;;;4.20;99.90;;;;;;5095767;28;20027;-87
2022/01/25 00:44:18;;;;;;;8.15;5.15;;;4.20;99.90;;;;;;5075336;28;20020;-87
2022/01/25 00:46:46;;;;;;;6.18;4.72;;;4.20;99.90;;;;;;5077465;28;20508;-87
2022/01/25 00:49:20;;;;;;;7.53;5.45;;;4.10;99.90;;;;;;5092386;28;20618;-87
2022/01/25 00:52:05;;;;;;;9.13;5.93;;;4.20;99.90;;;;;;5094531;28;20089;-86
2022/01/25 00:55:15;;;;;;;9.00;5.25;;;4.10;99.90;;;;;;5095628;28;20028;-87
2022/01/25 00:57:41;;;;;;;8.07;5.45;;;4.20;99.90;;;;;;5077142;28;20032;-87
2022/01/25 01:00:16;;;;;;;6.28;4.90;;;4.20;99.90;;;;;;5077034;28;20047;-87
2022/01/25 01:02:42;;;;;;;6.95;5.63;;;4.10;99.90;;;;;;5092523;28;20017;-87
2022/01/25 01:05:08;;;;;;;6.53;5.13;;;4.20;99.90;;;;;;5082640;28;20023;-87
2022/01/25 01:07:59;;;;;;;9.98;5.05;;;4.20;99.90;;;;;;5077250;28;20029;-87
2022/01/25 01:10:26;;;;;;;11.27;4.88;;;4.20;99.90;;;;;;5095284;28;20039;-87
2022/01/25 01:13:23;;;;;;;10.77;5.68;;;4.20;99.90;;;;;;5095187;28;20020;-87
2022/01/25 01:15:57;;;;;;;8.05;5.32;;;4.20;99.90;;;;;;5093410;28;20032;-86
2022/01/25 01:30:06;;;;;;;6.90;5.10;;;4.20;99.90;;;;;;5012909;28;20402;-86
2022/01/25 01:43:40;;;;;;;7.72;5.03;;;4.10;99.90;;;;;;5094547;28;20387;-88
2022/01/25 01:48:53;;;;;;;7.80;5.18;;;4.10;99.90;;;;;;5095055;28;20529;-88
2022/01/25 01:51:28;;;;;;;8.85;5.45;;;4.00;99.90;;;;;;5079418;28;20120;-88
2022/01/25 01:54:01;;;;;;;7.63;5.60;;;4.10;99.90;;;;;;5073899;28;20025;-88
2022/01/25 01:56:39;;;;;;;12.13;5.72;;;4.10;99.90;;;;;;5073065;28;20037;-88
2022/01/25 01:59:14;;;;;;;8.38;4.93;;;4.00;99.90;;;;;;5074046;28;20024;-88
2022/01/25 02:01:44;;;;;;;6.00;4.78;;;4.10;99.90;;;;;;5082427;28;20030;-87
2022/01/25 02:04:12;;;;;;;7.07;4.50;;;4.00;99.90;;;;;;5076280;28;20020;-87
2022/01/25 02:06:44;;;;;;;13.80;4.65;;;4.00;99.90;;;;;;5063616;28;20029;-87
2022/01/25 02:09:11;;;;;;;5.68;4.05;;;4.10;99.90;;;;;;5093836;28;20035;-86
2022/01/25 02:11:38;;;;;;;8.15;4.78;;;4.10;99.90;;;;;;5094025;28;20020;-87
2022/01/25 02:14:19;;;;;;;10.02;5.00;;;4.00;99.90;;;;;;5091506;28;20028;-87
2022/01/25 02:24:42;;;;;;;11.45;4.25;;;3.90;99.90;;;;;;5073986;28;20210;-87
2022/01/25 02:27:08;;;;;;;9.55;4.95;;;3.90;99.90;;;;;;5074051;28;20032;-86
2022/01/25 02:29:35;;;;;;;7.32;4.80;;;3.80;99.90;;;;;;5073360;28;20039;-86
2022/01/25 02:32:09;;;;;;;8.48;4.35;;;3.80;99.90;;;;;;5089948;28;20036;-86
2022/01/25 02:34:35;;;;;;;8.27;4.45;;;3.80;99.90;;;;;;5055815;28;20044;-86
2022/01/25 02:37:05;;;;;;;7.05;5.20;;;3.80;99.90;;;;;;5089709;28;20028;-86
2022/01/25 02:39:34;;;;;;;7.95;4.97;;;3.80;99.90;;;;;;5093601;28;20529;-86
2022/01/25 02:41:59;;;;;;;6.10;4.75;;;3.90;99.90;;;;;;5093561;28;20028;-84
2022/01/25 02:44:27;;;;;;;11.27;5.68;;;3.80;99.90;;;;;;5093396;28;20027;-84
2022/01/25 02:49:34;;;;;;;14.45;5.07;;;3.80;99.90;;;;;;5093422;28;20119;-84
2022/01/25 02:52:03;;;;;;;9.93;4.22;;;3.80;99.90;;;;;;5093058;28;20484;-84
2022/01/25 02:54:40;;;;;;;8.90;4.05;;;3.80;99.90;;;;;;5093178;28;20451;-84
2022/01/25 02:57:06;;;;;;;4.35;3.17;;;3.80;99.90;;;;;;5065867;28;20396;-84
2022/01/25 02:59:32;;;;;;;5.40;3.60;;;3.80;99.90;;;;;;5068207;28;20032;-84
2022/01/25 03:01:58;;;;;;;7.22;4.07;;;3.80;99.90;;;;;;5086783;28;20408;-84
2022/01/25 03:04:31;;;;;;;6.35;3.75;;;3.70;99.90;;;;;;5093064;28;20063;-84
2022/01/25 03:06:56;;;;;;;5.70;3.83;;;3.70;99.90;;;;;;5093167;28;20103;-84
2022/01/25 03:09:31;;;;;;;4.35;3.05;;;3.70;99.90;;;;;;5093172;28;20055;-84
2022/01/25 03:11:57;;;;;;;6.03;4.03;;;3.70;99.90;;;;;;5093061;28;20383;-85
2022/01/25 03:14:31;;;;;;;5.30;3.58;;;3.70;99.90;;;;;;5089208;28;20046;-84
2022/01/25 03:22:00;;;;;;;8.10;4.45;;;3.70;99.90;;;;;;5087151;28;20377;-84
2022/01/25 03:24:34;;;;;;;6.53;4.97;;;3.70;99.90;;;;;;5072651;28;20020;-83
2022/01/25 03:27:00;;;;;;;10.05;4.35;;;3.80;99.90;;;;;;5081609;28;20031;-84
2022/01/25 03:29:26;;;;;;;6.15;3.92;;;3.70;99.90;;;;;;5072987;28;20032;-84
2022/01/25 03:31:52;;;;;;;6.03;3.88;;;3.70;99.90;;;;;;5092464;28;20046;-84
2022/01/25 03:34:23;;;;;;;7.00;4.00;;;3.70;99.90;;;;;;5085185;28;20095;-84
2022/01/25 03:36:48;;;;;;;15.65;4.85;;;3.70;99.90;;;;;;5085233;28;20051;-84
2022/01/25 03:39:25;;;;;;;9.10;5.30;;;3.70;99.90;;;;;;5092738;28;20348;-84
2022/01/25 03:41:51;;;;;;;9.73;5.45;;;3.60;99.90;;;;;;5092512;28;20409;-84
2022/01/25 03:44:22;;;;;;;11.82;4.97;;;3.60;99.90;;;;;;5074257;28;20105;-84
2022/01/25 03:51:58;;;;;;;16.48;6.30;;;3.60;99.90;;;;;;5077894;28;20047;-84
2022/01/25 03:54:25;;;;;;;14.02;6.95;;;3.60;99.90;;;;;;5092889;28;20032;-84
2022/01/25 03:56:51;;;;;;;13.20;7.82;;;3.60;99.90;;;;;;5092439;28;20035;-84
2022/01/25 03:59:22;;;;;;;12.50;8.07;;;3.60;99.90;;;;;;5077334;28;20020;-84
2022/01/25 04:01:47;;;;;;;13.10;7.65;;;3.70;99.90;;;;;;5092418;28;20471;-84
2022/01/25 04:04:25;;;;;;;11.93;7.78;;;3.60;99.90;;;;;;5092169;28;20031;-84
2022/01/25 04:06:52;;;;;;;13.88;8.73;;;3.70;99.90;;;;;;5092293;28;20020;-86
2022/01/25 04:09:30;;;;;;;12.05;8.18;;;3.70;99.90;;;;;;5092589;28;20024;-85
2022/01/25 04:11:55;;;;;;;11.80;7.60;;;3.70;99.90;;;;;;5075827;28;20025;-84
2022/01/25 04:14:29;;;;;;;11.60;7.43;;;3.80;99.90;;;;;;5089371;28;20484;-85
2022/01/25 04:19:36;;;;;;;14.20;8.35;;;3.70;99.90;;;;;;5092594;28;20021;-84
2022/01/25 04:27:24;;;;;;;21.60;7.75;;;3.70;99.90;;;;;;5073309;28;20064;-84
2022/01/25 04:29:51;;;;;;;13.30;7.68;;;3.70;99.90;;;;;;5091593;28;20050;-84
2022/01/25 04:32:44;;;;;;;15.20;8.27;;;3.70;99.90;;;;;;5091873;28;20031;-84
2022/01/25 04:35:41;;;;;;;17.77;9.35;;;3.70;99.90;;;;;;5092186;28;20054;-84
2022/01/25 04:57:48;;;;;;;42.88;21.33;;;3.70;99.90;;;;;;5067081;28;20021;-84
2022/01/25 05:00:22;;;;;;;37.28;21.23;;;3.70;99.90;;;;;;5053390;28;20546;-84
2022/01/25 05:03:13;;;;;;;38.67;24.30;;;3.80;99.90;;;;;;5067454;28;20028;-84
2022/01/25 05:05:53;;;;;;;39.35;24.65;;;3.70;99.90;;;;;;5090971;28;20027;-84
2022/01/25 05:16:33;;;;;;;41.92;26.80;;;3.70;99.90;;;;;;5075263;28;20028;-83
2022/01/25 05:19:25;;;;;;;43.50;27.80;;;3.70;99.90;;;;;;5074800;28;20029;-84
2022/01/25 05:24:58;;;;;;;45.70;26.85;;;3.60;99.90;;;;;;5075290;28;20035;-84
2022/01/25 05:27:30;;;;;;;43.85;25.63;;;3.70;99.90;;;;;;5056758;28;20033;-84
2022/01/25 05:29:59;;;;;;;47.38;25.15;;;3.70;99.90;;;;;;5074843;28;20024;-84
2022/01/25 05:32:27;;;;;;;49.13;25.08;;;3.70;99.90;;;;;;5100706;28;20028;-84
2022/01/25 05:34:52;;;;;;;40.50;25.15;;;3.60;99.90;;;;;;5094899;28;20475;-84
2022/01/25 05:37:24;;;;;;;45.17;27.85;;;3.60;99.90;;;;;;5094066;28;20031;-84
2022/01/25 05:39:51;;;;;;;40.70;25.45;;;3.60;99.90;;;;;;5094733;28;20020;-84
2022/01/25 05:42:42;;;;;;;38.17;24.58;;;3.60;99.90;;;;;;5094159;28;20020;-84
2022/01/25 05:45:20;;;;;;;34.03;21.70;;;3.50;99.90;;;;;;5094419;28;20016;-85
2022/01/25 05:47:55;;;;;;;42.55;25.90;;;3.50;99.90;;;;;;5083174;28;20472;-85
2022/01/25 05:50:20;;;;;;;36.13;22.83;;;3.50;99.90;;;;;;5081731;28;20067;-84
2022/01/25 05:52:47;;;;;;;41.10;26.02;;;3.50;99.90;;;;;;5073240;28;20519;-84
2022/01/25 05:55:13;;;;;;;42.20;24.83;;;3.50;99.90;;;;;;5056148;28;20023;-85
2022/01/25 05:57:39;;;;;;;40.58;23.27;;;3.50;99.90;;;;;;5073770;28;20028;-85
2022/01/25 06:00:07;;;;;;;38.22;23.67;;;3.50;99.90;;;;;;5072735;28;20484;-85
2022/01/25 06:02:33;;;;;;;47.55;25.58;;;3.50;99.90;;;;;;5088377;28;20074;-85
2022/01/25 06:04:59;;;;;;;36.28;23.00;;;3.50;99.90;;;;;;5089872;28;20019;-84
2022/01/25 06:07:26;;;;;;;43.17;24.67;;;3.40;99.90;;;;;;5075063;28;20024;-84
2022/01/25 06:09:53;;;;;;;45.22;24.95;;;3.40;99.90;;;;;;5074008;28;20353;-84
2022/01/25 06:12:23;;;;;;;31.13;22.13;;;3.50;99.90;;;;;;5073252;28;20024;-84
2022/01/25 06:14:49;;;;;;;34.65;22.90;;;3.50;99.90;;;;;;5073776;28;20032;-84
2022/01/25 06:17:23;;;;;;;37.42;21.88;;;3.40;99.90;;;;;;5089479;28;20032;-84
2022/01/25 06:19:49;;;;;;;24.37;15.27;;;3.40;99.90;;;;;;5073780;28;20031;-84
2022/01/25 06:22:15;;;;;;;34.50;20.75;;;3.40;99.90;;;;;;5073341;28;20024;-84
2022/01/25 06:24:43;;;;;;;34.60;20.00;;;3.30;99.90;;;;;;5073543;28;20044;-84
2022/01/25 06:27:09;;;;;;;34.08;20.55;;;3.30;99.90;;;;;;5073553;28;20032;-84
2022/01/25 06:29:40;;;;;;;42.13;21.17;;;3.30;99.90;;;;;;5073191;28;20046;-84
2022/01/25 06:32:06;;;;;;;33.45;21.30;;;3.30;99.90;;;;;;5075539;28;20032;-84
2022/01/25 06:34:33;;;;;;;38.33;22.25;;;3.30;99.90;;;;;;5109482;28;20024;-84
2022/01/25 06:36:58;;;;;;;36.70;22.80;;;3.40;99.90;;;;;;5075154;28;20418;-84
2022/01/25 06:39:28;;;;;;;39.05;23.05;;;3.40;99.90;;;;;;5093667;28;20024;-83
2022/01/25 06:41:54;;;;;;;38.55;21.77;;;3.40;99.90;;;;;;5089008;28;20110;-84
2022/01/25 06:44:33;;;;;;;35.90;21.88;;;3.40;99.90;;;;;;5072736;28;20058;-84
2022/01/25 06:46:59;;;;;;;37.92;23.33;;;3.50;99.90;;;;;;5073158;28;20392;-84
2022/01/25 06:49:32;;;;;;;42.20;23.95;;;3.30;99.90;;;;;;5088936;28;20021;-84
2022/01/25 06:51:59;;;;;;;40.70;21.30;;;3.40;99.90;;;;;;5071609;28;20496;-91
2022/01/25 06:54:35;;;;;;;40.63;22.35;;;3.40;99.90;;;;;;5073145;28;20024;-84
2022/01/25 06:57:01;;;;;;;40.08;22.17;;;3.30;99.90;;;;;;5072919;28;20029;-85
2022/01/25 06:59:31;;;;;;;42.63;23.42;;;3.30;99.90;;;;;;5088167;28;20017;-84
2022/01/25 07:01:56;;;;;;;37.08;22.08;;;3.30;99.90;;;;;;5088235;28;20027;-84
2022/01/25 07:04:22;;;;;;;47.30;23.77;;;3.30;99.90;;;;;;5093085;28;20016;-85
2022/01/25 07:06:47;;;;;;;36.70;24.23;;;3.30;99.90;;;;;;5092630;28;20028;-85
2022/01/25 07:09:29;;;;;;;44.50;26.20;;;3.30;99.90;;;;;;5093037;28;20028;-84
2022/01/25 07:11:55;;;;;;;39.15;23.80;;;3.40;99.90;;;;;;5082563;28;20361;-84
2022/01/25 07:14:28;;;;;;;39.55;25.35;;;3.30;99.90;;;;;;5071981;28;20070;-84
2022/01/25 07:16:54;;;;;;;43.15;25.33;;;3.30;99.90;;;;;;5071425;28;20158;-84
2022/01/25 07:19:20;;;;;;;44.95;26.05;;;3.20;99.90;;;;;;5072305;28;20410;-84
2022/01/25 07:21:46;;;;;;;53.15;28.27;;;3.30;99.90;;;;;;5072540;28;20050;-84
2022/01/25 07:24:14;;;;;;;44.45;24.88;;;3.30;99.90;;;;;;5072570;28;20051;-84
2022/01/25 07:26:39;;;;;;;45.30;25.17;;;3.30;99.90;;;;;;5075137;28;20532;-84
2022/01/25 07:29:05;;;;;;;44.88;26.92;;;3.20;99.90;;;;;;5080002;28;20103;-84
2022/01/25 07:31:30;;;;;;;45.85;27.55;;;3.30;99.90;;;;;;5072018;28;20492;-84
2022/01/25 07:33:59;;;;;;;47.22;25.88;;;3.30;99.90;;;;;;5092860;28;20066;-84
2022/01/25 07:36:25;;;;;;;50.53;28.10;;;3.30;99.90;;;;;;5092099;28;20028;-84
2022/01/25 07:38:56;;;;;;;50.53;28.45;;;3.40;99.90;;;;;;5080032;28;20077;-84
2022/01/25 07:41:23;;;;;;;43.30;26.77;;;3.30;99.90;;;;;;5092663;28;20027;-84
2022/01/25 07:43:50;;;;;;;46.47;27.05;;;3.40;99.90;;;;;;5092246;28;20016;-84
2022/01/25 07:46:16;;;;;;;53.15;28.80;;;3.40;99.90;;;;;;5092734;28;20032;-84
2022/01/25 07:48:48;;;;;;;47.63;28.10;;;3.30;99.90;;;;;;5092511;28;20075;-83
2022/01/25 07:51:14;;;;;;;51.15;28.65;;;3.30;99.90;;;;;;5092512;28;20044;-84
2022/01/25 07:53:41;;;;;;;48.15;28.42;;;3.30;99.90;;;;;;5092457;28;20065;-83
2022/01/25 07:56:06;;;;;;;55.33;31.67;;;3.30;99.90;;;;;;5092473;28;20365;-82
2022/01/25 07:58:32;;;;;;;49.53;28.98;;;3.30;99.90;;;;;;5074166;28;20023;-83
2022/01/25 08:00:58;;;;;;;49.13;26.10;;;3.30;99.90;;;;;;5078593;28;20028;-83
2022/01/25 08:03:24;;;;;;;55.53;30.27;;;3.30;99.90;;;;;;5088426;28;20024;-83
2022/01/25 08:06:01;;;;;;;47.33;28.73;;;3.30;99.90;;;;;;5092395;28;20031;-83
2022/01/25 08:08:27;;;;;;;57.63;30.25;;;3.30;99.90;;;;;;5074348;28;20027;-83
2022/01/25 08:10:55;;;;;;;60.05;30.92;;;3.30;99.90;;;;;;5074402;28;20376;-83
2022/01/25 08:13:21;;;;;;;55.35;32.20;;;3.40;99.90;;;;;;5091846;28;20174;-83
2022/01/25 08:15:53;;;;;;;58.92;31.52;;;3.40;99.90;;;;;;5093869;28;20099;-83
2022/01/25 08:18:18;;;;;;;50.55;31.48;;;3.40;99.90;;;;;;5096210;28;20024;-83
2022/01/25 08:20:44;;;;;;;60.50;33.80;;;3.40;99.90;;;;;;5096510;28;20042;-83
2022/01/25 08:23:09;;;;;;;61.13;34.60;;;3.30;99.90;;;;;;5078041;28;20056;-83
2022/01/25 08:25:47;;;;;;;71.25;34.63;;;3.40;99.90;;;;;;5096196;28;20103;-83
2022/01/25 08:28:12;;;;;;;57.28;32.03;;;3.30;99.90;;;;;;5095916;28;20126;-83
2022/01/25 08:30:40;;;;;;;58.90;34.08;;;3.30;99.90;;;;;;5096088;28;20032;-83
2022/01/25 08:33:05;;;;;;;61.80;33.42;;;3.30;99.90;;;;;;5096037;28;20031;-83
2022/01/25 08:35:35;;;;;;;70.07;37.95;;;3.30;99.90;;;;;;5096332;28;20028;-83
2022/01/25 08:38:00;;;;;;;75.30;38.28;;;3.30;99.90;;;;;;5095858;28;20154;-83
2022/01/25 08:40:34;;;;;;;71.00;37.08;;;3.30;99.90;;;;;;5096109;28;20469;-83
2022/01/25 08:43:02;;;;;;;52.75;29.55;;;3.30;99.90;;;;;;5095559;28;20158;-83
2022/01/25 08:45:30;;;;;;;69.03;37.53;;;3.30;99.90;;;;;;5095889;28;20431;-83
2022/01/25 08:47:55;;;;;;;77.57;40.22;;;3.30;99.90;;;;;;5077680;28;20024;-83
2022/01/25 08:50:21;;;;;;;74.82;38.17;;;3.40;99.90;;;;;;5095492;28;20446;-83
2022/01/25 08:52:48;;;;;;;68.97;35.00;;;3.30;99.90;;;;;;5095668;28;20040;-83
2022/01/25 08:55:13;;;;;;;81.10;41.00;;;3.30;99.90;;;;;;5095737;28;20058;-83
2022/01/25 08:57:46;;;;;;;85.05;45.33;;;3.30;99.90;;;;;;5095117;28;20067;-83
2022/01/25 09:00:13;;;;;;;84.38;44.30;;;3.30;99.90;;;;;;5095778;28;20024;-83
2022/01/25 09:02:41;;;;;;;80.75;43.15;;;3.40;99.90;;;;;;5095502;28;20489;-83
2022/01/25 09:05:07;;;;;;;85.65;44.85;;;3.40;99.90;;;;;;5095626;28;20468;-83
2022/01/25 09:07:36;;;;;;;84.85;43.92;;;3.40;99.90;;;;;;5077287;28;20024;-83
2022/01/25 09:10:03;;;;;;;81.63;41.30;;;3.40;99.90;;;;;;5095491;28;20024;-83
2022/01/25 09:12:33;;;;;;;62.95;34.78;;;3.30;99.90;;;;;;5077069;28;20093;-83
2022/01/25 09:14:58;;;;;;;90.15;42.30;;;3.30;99.90;;;;;;5095355;28;20032;-82
2022/01/25 09:17:32;;;;;;;83.47;42.28;;;3.40;99.90;;;;;;5095257;28;20028;-83
2022/01/25 09:20:00;;;;;;;83.55;41.90;;;3.40;99.90;;;;;;5095209;28;20016;-83
2022/01/25 09:22:31;;;;;;;87.18;45.10;;;3.40;99.90;;;;;;5095164;28;20103;-83
2022/01/25 09:24:57;;;;;;;94.82;48.63;;;3.40;99.90;;;;;;5076996;28;20563;-83
2022/01/25 09:27:24;;;;;;;94.75;47.33;;;3.40;99.90;;;;;;5075302;28;20111;-83
2022/01/25 09:29:49;;;;;;;98.40;50.10;;;3.40;99.90;;;;;;5095181;28;20028;-83
2022/01/25 09:32:29;;;;;;;104.72;52.53;;;3.30;99.90;;;;;;5094891;28;20471;-84
2022/01/25 09:34:55;;;;;;;93.25;49.22;;;3.40;99.90;;;;;;5076933;28;20048;-83
2022/01/25 09:37:27;;;;;;;105.30;52.33;;;3.40;99.90;;;;;;5094657;28;20063;-83
2022/01/25 09:39:52;;;;;;;97.85;52.30;;;3.30;99.90;;;;;;5094969;28;20040;-83
2022/01/25 09:42:31;;;;;;;107.07;55.17;;;3.40;99.90;;;;;;5076012;28;20082;-83
2022/01/25 09:44:58;;;;;;;111.50;57.85;;;3.30;99.90;;;;;;5094727;28;20507;-83
2022/01/25 09:47:26;;;;;;;102.63;54.95;;;3.30;99.90;;;;;;5076595;28;20535;-83
2022/01/25 09:49:52;;;;;;;113.25;55.33;;;3.30;99.90;;;;;;5094537;28;20503;-83
2022/01/25 09:52:33;;;;;;;102.90;55.08;;;3.30;99.90;;;;;;5094548;28;20085;-83
2022/01/25 09:55:02;;;;;;;113.57;56.38;;;3.30;99.90;;;;;;5076337;28;20024;-84
2022/01/25 09:57:29;;;;;;;109.20;57.47;;;3.30;99.90;;;;;;5094095;28;20032;-83
2022/01/25 09:59:56;;;;;;;115.15;58.75;;;3.30;99.90;;;;;;5094121;28;20024;-83
2022/01/25 10:02:48;;;;;;;107.50;53.50;;;3.30;99.90;;;;;;5094313;28;20070;-83
2022/01/25 10:05:33;;;;;;;108.55;57.55;;;3.20;99.90;;;;;;5094467;28;20020;-83
2022/01/25 10:08:06;;;;;;;106.65;55.00;;;3.20;99.90;;;;;;5094026;28;20373;-83
2022/01/25 10:10:34;;;;;;;111.07;56.22;;;3.30;99.90;;;;;;5094256;28;20020;-83
2022/01/25 10:13:22;;;;;;;106.28;56.25;;;3.30;99.90;;;;;;5093606;28;20020;-83
2022/01/25 10:15:50;;;;;;;119.88;60.53;;;3.30;99.90;;;;;;5094110;28;20016;-83
2022/01/25 10:18:19;;;;;;;110.07;60.22;;;3.30;99.90;;;;;;5109817;28;20024;-83
2022/01/25 10:20:48;;;;;;;110.47;58.05;;;3.30;99.90;;;;;;5094229;28;20020;-83
2022/01/25 10:23:30;;;;;;;125.70;59.50;;;3.30;99.90;;;;;;5094361;28;20388;-83
2022/01/25 10:25:59;;;;;;;113.85;57.47;;;3.40;99.90;;;;;;5093389;28;20055;-83
2022/01/25 10:28:28;;;;;;;102.95;53.75;;;3.40;99.90;;;;;;5078018;28;20040;-83
2022/01/25 10:30:59;;;;;;;112.60;58.28;;;3.30;99.90;;;;;;5077976;28;20035;-83
2022/01/25 10:33:36;;;;;;;113.18;57.92;;;3.40;99.90;;;;;;5074597;28;20024;-83
2022/01/25 10:36:19;;;;;;;122.43;60.17;;;3.40;99.90;;;;;;5073174;28;20056;-83
2022/01/25 10:38:48;;;;;;;124.18;60.72;;;3.40;99.90;;;;;;5082867;28;20028;-83
2022/01/25 10:41:19;;;;;;;121.35;60.67;;;3.40;99.90;;;;;;5075446;28;20024;-83
2022/01/25 10:43:46;;;;;;;112.00;55.92;;;3.30;99.90;;;;;;5105566;28;20047;-84
2022/01/25 10:46:19;;;;;;;126.30;59.13;;;3.30;99.90;;;;;;5075398;28;20028;-84
2022/01/25 10:49:10;;;;;;;122.30;61.30;;;3.40;99.90;;;;;;5093428;28;20475;-84
2022/01/25 10:51:49;;;;;;;108.88;53.53;;;3.40;99.90;;;;;;5089511;28;20036;-84
2022/01/25 10:54:17;;;;;;;121.80;58.20;;;3.30;99.90;;;;;;5092902;28;20059;-84
2022/01/25 10:56:45;;;;;;;118.30;55.65;;;3.40;99.90;;;;;;5093096;28;20032;-84
2022/01/25 10:59:15;;;;;;;111.50;54.25;;;3.40;99.90;;;;;;5093203;28;20081;-84
2022/01/25 11:01:53;;;;;;;116.05;54.60;;;3.40;99.90;;;;;;5074963;28;20028;-83
2022/01/25 11:04:23;;;;;;;117.28;58.17;;;3.30;99.90;;;;;;5093051;28;20035;-83
2022/01/25 11:07:00;;;;;;;126.47;61.08;;;3.30;99.90;;;;;;5093112;28;20388;-83
2022/01/25 11:09:34;;;;;;;130.23;59.65;;;3.30;99.90;;;;;;5090726;28;20472;-84
2022/01/25 11:12:10;;;;;;;144.30;64.63;;;3.40;99.90;;;;;;5072647;28;20024;-84
2022/01/25 11:14:56;;;;;;;136.43;63.08;;;3.40;99.90;;;;;;5072661;28;20020;-84
2022/01/25 11:17:30;;;;;;;134.23;62.83;;;3.40;99.90;;;;;;5072739;28;20020;-84
2022/01/25 11:19:57;;;;;;;148.93;65.28;;;3.30;99.90;;;;;;5071921;28;20027;-84
2022/01/25 11:22:33;;;;;;;143.60;65.07;;;3.30;99.90;;;;;;5080688;28;20024;-84
2022/01/25 11:25:02;;;;;;;137.35;61.88;;;3.30;99.90;;;;;;5093091;28;20095;-83
2022/01/25 11:27:30;;;;;;;133.23;63.40;;;3.30;99.90;;;;;;5092452;28;20061;-83
2022/01/25 11:30:00;;;;;;;134.98;55.47;;;3.30;99.90;;;;;;5108388;28;20035;-83
2022/01/25 11:32:39;;;;;;;114.63;53.15;;;3.30;99.90;;;;;;5108363;28;20024;-83
2022/01/25 11:35:08;;;;;;;138.05;55.85;;;3.20;99.90;;;;;;5092823;28;20479;-83
2022/01/25 11:37:41;;;;;;;133.15;57.30;;;3.30;99.90;;;;;;5074447;28;20031;-83
2022/01/25 11:40:29;;;;;;;126.43;58.70;;;3.30;99.90;;;;;;5092809;28;20349;-83
2022/01/25 11:43:16;;;;;;;142.52;59.10;;;3.30;99.90;;;;;;5074251;28;20020;-83
2022/01/25 11:45:49;;;;;;;133.63;59.95;;;3.30;99.90;;;;;;5067496;28;20024;-83
2022/01/25 11:48:36;;;;;;;131.52;59.67;;;3.40;99.90;;;;;;5072781;28;20025;-83
2022/01/25 11:51:20;;;;;;;137.40;57.95;;;3.30;99.90;;;;;;5081209;28;20379;-84
2022/01/25 11:53:48;;;;;;;121.75;53.63;;;3.30;99.90;;;;;;5096861;28;20020;-84
2022/01/25 11:56:16;;;;;;;123.47;50.72;;;3.30;99.90;;;;;;5095756;28;20035;-84
2022/01/25 11:58:54;;;;;;;117.03;51.80;;;3.30;99.90;;;;;;5096613;28;20094;-83
2022/01/25 12:01:22;;;;;;;125.25;54.50;;;3.30;99.90;;;;;;5096761;28;20334;-84
2022/01/25 12:03:57;;;;;;;122.40;52.10;;;3.20;99.90;;;;;;5096593;28;20015;-83
2022/01/25 12:06:31;;;;;;;134.07;59.53;;;3.30;99.90;;;;;;5086466;28;20036;-84
2022/01/25 12:09:41;;;;;;;143.90;59.42;;;3.30;99.90;;;;;;5076598;28;20070;-84
2022/01/25 12:12:09;;;;;;;107.00;49.70;;;3.30;99.90;;;;;;5081461;28;20115;-84
2022/01/25 12:14:51;;;;;;;117.85;52.13;;;3.30;99.90;;;;;;5064675;28;20141;-84
2022/01/25 12:17:27;;;;;;;120.47;53.17;;;3.20;99.90;;;;;;5092817;28;20027;-83
2022/01/25 12:20:11;;;;;;;124.07;51.55;;;3.30;99.90;;;;;;5076246;28;20028;-84
2022/01/25 12:22:42;;;;;;;132.25;56.55;;;3.20;99.90;;;;;;5075438;28;20129;-83
2022/01/25 12:25:34;;;;;;;124.03;52.80;;;3.20;99.90;;;;;;5076352;28;20024;-83
2022/01/25 12:28:07;;;;;;;123.28;54.40;;;3.20;99.90;;;;;;5075683;28;20029;-83
2022/01/25 12:30:42;;;;;;;129.80;54.00;;;3.20;99.90;;;;;;5078625;28;20460;-84
2022/01/25 12:33:28;;;;;;;131.10;55.33;;;3.20;99.90;;;;;;5116835;28;20027;-84
2022/01/25 12:36:00;;;;;;;131.40;54.67;;;3.20;99.90;;;;;;5098362;28;20024;-84
2022/01/25 12:38:43;;;;;;;128.07;55.47;;;3.30;99.90;;;;;;5116655;28;20011;-84
2022/01/25 12:41:36;;;;;;;133.13;57.90;;;3.30;99.90;;;;;;5116209;28;20019;-83
2022/01/25 12:44:06;;;;;;;134.38;56.38;;;3.30;99.90;;;;;;5116402;28;20024;-83
2022/01/25 12:46:40;;;;;;;139.45;57.90;;;3.30;99.90;;;;;;5116351;28;20020;-83
2022/01/25 12:49:11;;;;;;;133.65;56.38;;;3.30;99.90;;;;;;5116440;28;20020;-83
2022/01/25 12:51:39;;;;;;;135.93;56.50;;;3.20;99.90;;;;;;5115287;28;20050;-83
2022/01/25 12:54:09;;;;;;;149.52;60.03;;;3.20;99.90;;;;;;5116272;28;20035;-83
2022/01/25 12:56:40;;;;;;;141.93;59.00;;;3.30;99.90;;;;;;5104485;28;20491;-83
2022/01/25 12:59:19;;;;;;;147.88;61.20;;;3.20;99.90;;;;;;5090492;28;20021;-84
2022/01/25 13:01:46;;;;;;;145.00;59.75;;;3.20;99.90;;;;;;5066682;28;20025;-83
2022/01/25 13:04:16;;;;;;;157.80;63.03;;;3.20;99.90;;;;;;5075595;28;20024;-84
2022/01/25 13:06:48;;;;;;;165.40;62.42;;;3.10;99.90;;;;;;5057198;28;20021;-83
2022/01/25 13:09:30;;;;;;;157.40;65.93;;;3.20;99.90;;;;;;5075600;28;20056;-83
2022/01/25 13:12:13;;;;;;;150.55;63.55;;;3.20;99.90;;;;;;5074696;28;20034;-83
2022/01/25 13:14:51;;;;;;;175.07;68.63;;;3.20;99.90;;;;;;5074938;28;20024;-83
2022/01/25 13:17:22;;;;;;;172.65;70.82;;;3.20;99.90;;;;;;5075293;28;20032;-82
2022/01/25 13:19:59;;;;;;;165.73;64.82;;;3.20;99.90;;;;;;5075448;28;20391;-83
2022/01/25 13:22:35;;;;;;;163.80;67.63;;;3.20;99.90;;;;;;5091788;28;20469;-83
2022/01/25 13:25:26;;;;;;;173.07;67.90;;;3.20;99.90;;;;;;5075253;28;20021;-83
2022/01/25 13:27:56;;;;;;;173.45;66.88;;;3.20;99.90;;;;;;5079638;28;20495;-82
2022/01/25 13:30:49;;;;;;;160.40;67.22;;;3.30;99.90;;;;;;5095074;28;20060;-83
2022/01/25 13:33:21;;;;;;;145.48;62.05;;;3.30;99.90;;;;;;5113076;28;20034;-83
2022/01/25 13:35:53;;;;;;;157.20;62.65;;;3.30;99.90;;;;;;5115310;28;20475;-83
2022/01/25 13:38:37;;;;;;;154.70;65.20;;;3.40;99.90;;;;;;5098815;28;20034;-83
2022/01/25 13:46:13;;;;;;;136.98;59.50;;;3.50;99.90;;;;;;5095063;28;20028;-83
2022/01/25 13:48:39;;;;;;;152.07;62.80;;;3.50;99.90;;;;;;5094537;28;20070;-83
2022/01/25 13:51:14;;;;;;;150.60;61.08;;;3.50;99.90;;;;;;5094095;28;20090;-84
2022/01/25 13:53:41;;;;;;;149.18;61.30;;;3.50;99.90;;;;;;5093234;28;20074;-83
2022/01/25 13:56:11;;;;;;;140.10;62.97;;;3.60;99.90;;;;;;5093364;28;20036;-84
2022/01/25 13:58:41;;;;;;;133.23;57.67;;;3.60;99.90;;;;;;5075636;28;20032;-84
2022/01/25 14:01:13;;;;;;;135.07;59.05;;;3.70;99.90;;;;;;5093787;28;20016;-84
2022/01/25 14:04:09;;;;;;;133.30;57.13;;;3.70;99.90;;;;;;5093299;28;20024;-83
2022/01/25 14:06:40;;;;;;;130.38;55.90;;;3.70;99.90;;;;;;5075434;28;20543;-84
2022/01/25 14:09:12;;;;;;;137.23;57.65;;;3.70;99.90;;;;;;5091740;28;20070;-83
2022/01/25 14:23:22;;;;;;;114.97;51.28;;;3.70;99.90;;;;;;5073175;28;20102;-84
2022/01/25 14:25:49;;;;;;;124.05;51.53;;;3.70;99.90;;;;;;5072684;28;20024;-84
2022/01/25 14:28:24;;;;;;;123.05;51.50;;;3.70;99.90;;;;;;5071248;28;20035;-83
2022/01/25 14:30:51;;;;;;;;;;;3.80;99.90;;;;;;5073207;28;20031;-84
2022/01/25 14:33:25;;;;;;;114.72;47.38;;;3.80;99.90;;;;;;5072517;28;19915;-84
2022/01/25 14:36:04;;;;;;;114.32;49.25;;;3.80;99.90;;;;;;5072748;28;20033;-84
2022/01/25 14:38:43;;;;;;;117.55;50.83;;;3.80;99.90;;;;;;5088155;28;20027;-84
2022/01/25 14:41:28;;;;;;;108.10;46.92;;;3.80;99.90;;;;;;5092584;28;20032;-84
2022/01/25 14:44:01;;;;;;;106.88;44.40;;;3.80;99.90;;;;;;5092753;28;20016;-84
2022/01/25 14:46:34;;;;;;;99.85;45.53;;;3.90;99.90;;;;;;5092435;28;20043;-83
2022/01/25 14:49:07;;;;;;;99.65;41.67;;;3.90;99.90;;;;;;5092481;28;20044;-84
2022/01/25 14:53:06;;;;;;;104.60;43.35;;;3.90;99.90;;;;;;5110283;27;20418;-84
2022/01/25 14:55:34;;;;;;;101.13;41.33;;;3.90;99.90;;;;;;5098926;28;20446;-83
2022/01/25 15:00:49;;;;;;;86.60;38.73;;;3.80;99.90;;;;;;5094614;28;20024;-84
2022/01/25 15:03:19;;;;;;;83.50;36.78;;;3.80;99.90;;;;;;5103168;28;20276;-84
2022/01/25 15:05:46;;;;;;;83.55;36.47;;;3.80;99.90;;;;;;5096312;28;20024;-84
2022/01/25 15:08:14;;;;;;;83.63;36.55;;;3.80;99.90;;;;;;5090012;28;20027;-84
2022/01/25 15:10:44;;;;;;;88.03;37.65;;;3.80;99.90;;;;;;5089571;28;20103;-84